Time;durP1;ratioP1;P1;durP2;ratioP2;P2;SDS_P1;SDS_P2;PMS_P1;PMS_P2;Temp;Humidity;BMP_temperature;BMP_pressure;BME280_temperature;BME280_humidity;BME280_pressure;Samples;Min_cycle;Max_cycle;Signal;HPM_P1;HPM_P2
2022/09/02 00:03:01;;;;;;;;;;;;;;;;;;10501813;28;20284;-62
2022/09/02 00:08:03;;;;;;;;;;;;;;;;;;10502629;28;19932;-62
2022/09/02 00:13:05;;;;;;;;;;;;;;;;;;10504831;28;19924;-62
2022/09/02 00:18:07;;;;;;;;;;;;;;;;;;10501815;28;19924;-62
2022/09/02 00:23:13;;;;;;;;;;;;;;;;;;10501612;28;19967;-62
2022/09/02 00:28:15;;;;;;;;;;;;;;;;;;10501848;28;19928;-62
2022/09/02 00:33:17;;;;;;;;;;;;;;;;;;10500856;28;19932;-62
2022/09/02 00:38:19;;;;;;;;;;;;;;;;;;10500946;28;19932;-62
2022/09/02 00:43:21;;;;;;;;;;;;;;;;;;10500842;28;19924;-62
2022/09/02 00:48:23;;;;;;;;;;;;;;;;;;10500989;28;19970;-62
2022/09/02 00:53:26;;;;;;;;;;;;;;;;;;10501122;28;19924;-62
2022/09/02 00:58:28;;;;;;;;;;;;;;;;;;10500679;28;19924;-62
2022/09/02 01:03:30;;;;;;;;;;;;;;;;;;10500571;28;19925;-62
2022/09/02 01:08:33;;;;;;;;;;;;;;;;;;10499883;28;19924;-62
2022/09/02 01:13:35;;;;;;;;;;;;;;;;;;10500468;28;19928;-62
2022/09/02 01:18:37;;;;;;;;;;;;;;;;;;10498611;28;20295;-62
2022/09/02 01:23:39;;;;;;;;;;;;;;;;;;10498493;28;20268;-62
2022/09/02 01:28:42;;;;;;;;;;;;;;;;;;10498858;28;19925;-62
2022/09/02 01:33:44;;;;;;;;;;;;;;;;;;10498865;28;19925;-62
2022/09/02 01:38:46;;;;;;;;;;;;;;;;;;10499527;28;19959;-61
2022/09/02 01:43:48;;;;;;;;;;;;;;;;;;10498627;28;19925;-61
2022/09/02 01:48:50;;;;;;;;;;;;;;;;;;10497685;28;20386;-61
2022/09/02 01:53:52;;;;;;;;;;;;;;;;;;10498936;28;19924;-61
2022/09/02 01:58:54;;;;;;;;;;;;;;;;;;10498896;28;19925;-61
2022/09/02 02:03:56;;;;;;;;;;;;;;;;;;10498239;28;19932;-61
2022/09/02 02:08:58;;;;;;;;;;;;;;;;;;10498592;28;19925;-62
2022/09/02 02:14:00;;;;;;;;;;;;;;;;;;10497811;28;20380;-62
2022/09/02 02:19:03;;;;;;;;;;;;;;;;;;10503402;28;20423;-61
2022/09/02 02:24:06;;;;;;;;;;;;;;;;;;10506922;28;19928;-62
2022/09/02 02:29:08;;;;;;;;;;;;;;;;;;10505652;28;19924;-61
2022/09/02 02:34:11;;;;;;;;;;;;;;;;;;10505769;28;20399;-61
2022/09/02 02:39:13;;;;;;;;;;;;;;;;;;10506281;28;19978;-61
2022/09/02 02:44:15;;;;;;;;;;;;;;;;;;10505388;28;19939;-61
2022/09/02 02:49:19;;;;;;;;;;;;;;;;;;10505073;28;19972;-61
2022/09/02 02:54:21;;;;;;;;;;;;;;;;;;10505375;28;19931;-61
2022/09/02 02:59:24;;;;;;;;;;;;;;;;;;10504350;28;19925;-61
2022/09/02 03:04:27;;;;;;;;;;;;;;;;;;10505249;28;19924;-61
2022/09/02 03:09:29;;;;;;;;;;;;;;;;;;10504369;28;20314;-61
2022/09/02 03:14:31;;;;;;;;;;;;;;;;;;10504321;28;19931;-61
2022/09/02 03:19:33;;;;;;;;;;;;;;;;;;10503987;28;19931;-61
2022/09/02 03:24:35;;;;;;;;;;;;;;;;;;10503272;28;19928;-61
2022/09/02 03:29:38;;;;;;;;;;;;;;;;;;10501742;28;20382;-61
2022/09/02 03:34:40;;;;;;;;;;;;;;;;;;10502138;28;20257;-61
2022/09/02 03:39:42;;;;;;;;;;;;;;;;;;10503294;28;20023;-61
2022/09/02 03:44:44;;;;;;;;;;;;;;;;;;10503783;28;19924;-61
2022/09/02 03:49:47;;;;;;;;;;;;;;;;;;10503176;28;19931;-61
2022/09/02 03:54:49;;;;;;;;;;;;;;;;;;10503554;28;19931;-61
2022/09/02 03:59:51;;;;;;;;;;;;;;;;;;10501805;28;20264;-61
2022/09/02 04:04:53;;;;;;;;;;;;;;;;;;10502931;28;19924;-61
2022/09/02 04:09:55;;;;;;;;;;;;;;;;;;10503005;28;19928;-61
2022/09/02 04:14:57;;;;;;;;;;;;;;;;;;10501173;28;19939;-61
2022/09/02 04:19:59;;;;;;;;;;;;;;;;;;10500956;28;19947;-61
2022/09/02 04:25:01;;;;;;;;;;;;;;;;;;10500755;28;19925;-61
2022/09/02 04:30:03;;;;;;;;;;;;;;;;;;10500491;28;20387;-61
2022/09/02 04:35:05;;;;;;;;;;;;;;;;;;10501334;28;19928;-61
2022/09/02 04:40:07;;;;;;;;;;;;;;;;;;10499837;28;19931;-61
2022/09/02 04:45:10;;;;;;;;;;;;;;;;;;10501293;28;19928;-61
2022/09/02 04:50:12;;;;;;;;;;;;;;;;;;10500349;28;19932;-61
2022/09/02 04:55:14;;;;;;;;;;;;;;;;;;10499866;28;19931;-61
2022/09/02 05:00:18;;;;;;;;;;;;;;;;;;10500676;28;19925;-61
2022/09/02 05:05:20;;;;;;;;;;;;;;;;;;10474234;28;19935;-61
2022/09/02 05:10:22;;;;;;;;;;;;;;;;;;10459138;28;19925;-61
2022/09/02 05:15:25;;;;;;;;;;;;;;;;;;10498887;28;19924;-61
2022/09/02 05:20:27;;;;;;;;;;;;;;;;;;10499650;28;19925;-61
2022/09/02 05:25:30;;;;;;;;;;;;;;;;;;10499806;28;19970;-61
2022/09/02 05:30:32;;;;;;;;;;;;;;;;;;10499219;28;19925;-61
2022/09/02 05:35:34;;;;;;;;;;;;;;;;;;10499193;28;19924;-61
2022/09/02 05:40:37;;;;;;;;;;;;;;;;;;10499399;28;19929;-61
2022/09/02 05:45:39;;;;;;;;;;;;;;;;;;10513436;22;19928;-65
2022/09/02 05:50:42;;;;;;;;;;;;;;;;;;10497811;28;19924;-70
2022/09/02 05:55:44;;;;;;;;;;;;;;;;;;10497988;28;19935;-70
2022/09/02 06:00:46;;;;;;;;;;;;;;;;;;10499435;28;19925;-70
2022/09/02 06:05:48;;;;;;;;;;;;;;;;;;10481073;28;19924;-71
2022/09/02 06:10:50;;;;;;;;;;;;;;;;;;10497643;28;19925;-70
2022/09/02 06:15:52;;;;;;;;;;;;;;;;;;10497002;28;19925;-70
2022/09/02 06:20:54;;;;;;;;;;;;;;;;;;10498036;28;19929;-70
2022/09/02 06:25:57;;;;;;;;;;;;;;;;;;10498223;28;20000;-71
2022/09/02 06:30:59;;;;;;;;;;;;;;;;;;10490224;28;19925;-70
2022/09/02 06:36:01;;;;;;;;;;;;;;;;;;10508550;28;19924;-70
2022/09/02 06:41:03;;;;;;;;;;;;;;;;;;10536223;28;19938;-70
2022/09/02 06:46:05;;;;;;;;;;;;;;;;;;10539632;28;19930;-71
2022/09/02 06:51:07;;;;;;;;;;;;;;;;;;10535736;28;19970;-70
2022/09/02 06:56:09;;;;;;;;;;;;;;;;;;10497014;28;19928;-70
2022/09/02 07:01:12;;;;;;;;;;;;;;;;;;10497987;28;19926;-70
2022/09/02 07:06:14;;;;;;;;;;;;;;;;;;10503713;28;20330;-70
2022/09/02 07:11:16;;;;;;;;;;;;;;;;;;10502611;28;20306;-70
2022/09/02 07:16:18;;;;;;;;;;;;;;;;;;10502685;28;19932;-70
2022/09/02 07:21:28;;;;;;;;;;;;;;;;;;10498019;28;20256;-70
2022/09/02 07:26:30;;;;;;;;;;;;;;;;;;10487502;28;19932;-70
2022/09/02 07:31:32;;;;;;;;;;;;;;;;;;10478444;28;19925;-71
2022/09/02 07:36:35;;;;;;;;;;;;;;;;;;10502026;28;19967;-71
2022/09/02 07:41:37;;;;;;;;;;;;;;;;;;10501863;28;20359;-70
2022/09/02 07:46:39;;;;;;;;;;;;;;;;;;10502515;28;20367;-71
2022/09/02 07:51:41;;;;;;;;;;;;;;;;;;10501390;28;19931;-71
2022/09/02 07:56:44;;;;;;;;;;;;;;;;;;10500565;28;19924;-71
2022/09/02 08:01:47;;;;;;;;;;;;;;;;;;10501554;28;19924;-71
2022/09/02 08:06:50;;;;;;;;;;;;;;;;;;10499998;28;19924;-71
2022/09/02 08:11:53;;;;;;;;;;;;;;;;;;10500301;28;19925;-71
2022/09/02 08:16:55;;;;;;;;;;;;;;;;;;10480998;28;19935;-72
2022/09/02 08:21:57;;;;;;;;;;;;;;;;;;10499888;28;20023;-72
2022/09/02 08:26:59;;;;;;;;;;;;;;;;;;10497462;28;19925;-71
2022/09/02 08:32:01;;;;;;;;;;;;;;;;;;10499232;28;19924;-72
2022/09/02 08:37:05;;;;;;;;;;;;;;;;;;10498248;28;20398;-72
2022/09/02 08:42:07;;;;;;;;;;;;;;;;;;10483941;28;20269;-72
2022/09/02 08:47:09;;;;;;;;;;;;;;;;;;10499946;28;20287;-72
2022/09/02 08:52:11;;;;;;;;;;;;;;;;;;10481112;28;20302;-72
2022/09/02 08:57:18;;;;;;;;;;;;;;;;;;10496633;28;19931;-73
2022/09/02 09:02:20;;;;;;;;;;;;;;;;;;10496435;28;20387;-73
2022/09/02 09:07:22;;;;;;;;;;;;;;;;;;10516125;28;19990;-73
2022/09/02 09:12:24;;;;;;;;;;;;;;;;;;10515407;28;19982;-73
2022/09/02 09:17:26;;;;;;;;;;;;;;;;;;10496994;28;19928;-73
2022/09/02 09:22:28;;;;;;;;;;;;;;;;;;10497968;28;19931;-73
2022/09/02 09:27:31;;;;;;;;;;;;;;;;;;10495599;28;19924;-73
2022/09/02 09:32:33;;;;;;;;;;;;;;;;;;10503779;28;19925;-73
2022/09/02 09:37:35;;;;;;;;;;;;;;;;;;10479048;28;19929;-73
2022/09/02 09:42:37;;;;;;;;;;;;;;;;;;10490375;28;19928;-74
2022/09/02 09:47:39;;;;;;;;;;;;;;;;;;10488816;28;19932;-73
2022/09/02 09:52:42;;;;;;;;;;;;;;;;;;10490674;28;19928;-73
2022/09/02 09:57:44;;;;;;;;;;;;;;;;;;10489870;28;19931;-73
2022/09/02 10:02:46;;;;;;;;;;;;;;;;;;10490478;28;19990;-73
2022/09/02 10:07:49;;;;;;;;;;;;;;;;;;10489238;28;19928;-72
2022/09/02 10:12:51;;;;;;;;;;;;;;;;;;10490009;28;19928;-73
2022/09/02 10:17:53;;;;;;;;;;;;;;;;;;10488291;28;19932;-73
2022/09/02 10:22:55;;;;;;;;;;;;;;;;;;10490482;28;19940;-75
2022/09/02 10:28:02;;;;;;;;;;;;;;;;;;10486631;28;20004;-73
2022/09/02 10:33:04;;;;;;;;;;;;;;;;;;10489060;28;19932;-73
2022/09/02 10:38:07;;;;;;;;;;;;;;;;;;10504097;28;19951;-73
2022/09/02 10:43:09;;;;;;;;;;;;;;;;;;10496086;28;20372;-73
2022/09/02 10:48:12;;;;;;;;;;;;;;;;;;10497048;28;20404;-73
2022/09/02 10:53:14;;;;;;;;;;;;;;;;;;10495002;28;19928;-73
2022/09/02 10:58:16;;;;;;;;;;;;;;;;;;10495011;28;20337;-72
2022/09/02 11:03:19;;;;;;;;;;;;;;;;;;10495424;28;19925;-73
2022/09/02 11:08:24;;;;;;;;;;;;;;;;;;10494847;28;19978;-73
2022/09/02 11:13:30;;;;;;;;;;;;;;;;;;10496669;28;19929;-73
2022/09/02 11:18:32;;;;;;;;;;;;;;;;;;10493336;28;19928;-71
2022/09/02 11:23:35;;;;;;;;;;;;;;;;;;10495635;28;19932;-72
2022/09/02 11:28:37;;;;;;;;;;;;;;;;;;10494479;28;20354;-71
2022/09/02 11:33:41;;;;;;;;;;;;;;;;;;10493203;28;21445;-71
2022/09/02 11:38:43;;;;;;;;;;;;;;;;;;10478100;28;20370;-72
2022/09/02 11:43:45;;;;;;;;;;;;;;;;;;10495006;28;19928;-71
2022/09/02 11:48:47;;;;;;;;;;;;;;;;;;10474208;28;20343;-72
2022/09/02 11:53:50;;;;;;;;;;;;;;;;;;10491610;28;19924;-71
2022/09/02 11:58:55;;;;;;;;;;;;;;;;;;10500006;28;19952;-71
2022/09/02 12:03:58;;;;;;;;;;;;;;;;;;10491848;28;20364;-72
2022/09/02 12:09:20;;;;;;;;;;;;;;;;;;10502224;28;19986;-64
2022/09/02 12:14:22;;;;;;;;;;;;;;;;;;10501831;28;19925;-65
2022/09/02 12:19:24;;;;;;;;;;;;;;;;;;10499178;28;20394;-65
2022/09/02 12:24:26;;;;;;;;;;;;;;;;;;10501184;28;20368;-67
2022/09/02 12:29:28;;;;;;;;;;;;;;;;;;10501880;28;19924;-66
2022/09/02 12:34:30;;;;;;;;;;;;;;;;;;10501908;28;19925;-65
2022/09/02 12:39:34;;;;;;;;;;;;;;;;;;10501178;28;19925;-65
2022/09/02 12:44:38;;;;;;;;;;;;;;;;;;10501189;28;19924;-65
2022/09/02 12:49:40;;;;;;;;;;;;;;;;;;10500613;28;19939;-65
2022/09/02 12:54:42;;;;;;;;;;;;;;;;;;10514998;28;19929;-64
2022/09/02 12:59:44;;;;;;;;;;;;;;;;;;10494529;28;19924;-63
2022/09/02 13:04:46;;;;;;;;;;;;;;;;;;10499902;28;19925;-63
2022/09/02 13:09:48;;;;;;;;;;;;;;;;;;10499712;28;20004;-63
2022/09/02 13:14:50;;;;;;;;;;;;;;;;;;10499652;28;19931;-63
2022/09/02 13:19:52;;;;;;;;;;;;;;;;;;10499440;28;20279;-63
2022/09/02 13:24:54;;;;;;;;;;;;;;;;;;10499944;28;20185;-63
2022/09/02 13:29:56;;;;;;;;;;;;;;;;;;10499601;28;19972;-63
2022/09/02 13:35:00;;;;;;;;;;;;;;;;;;10497208;28;19925;-63
2022/09/02 13:40:02;;;;;;;;;;;;;;;;;;10497180;28;19924;-63
2022/09/02 13:45:04;;;;;;;;;;;;;;;;;;10497047;28;19934;-63
2022/09/02 13:50:06;;;;;;;;;;;;;;;;;;10476448;28;19925;-63
2022/09/02 13:55:08;;;;;;;;;;;;;;;;;;10496906;28;19935;-63
2022/09/02 14:00:10;;;;;;;;;;;;;;;;;;10495058;28;19924;-63
2022/09/02 14:05:13;;;;;;;;;;;;;;;;;;10497806;28;19928;-63
2022/09/02 14:10:15;;;;;;;;;;;;;;;;;;10495022;28;19936;-63
2022/09/02 14:15:17;;;;;;;;;;;;;;;;;;10504262;28;19924;-63
2022/09/02 14:20:19;;;;;;;;;;;;;;;;;;10512333;28;19924;-63
2022/09/02 14:25:21;;;;;;;;;;;;;;;;;;10512238;28;19934;-63
2022/09/02 14:30:28;;;;;;;;;;;;;;;;;;10511262;28;19931;-63
2022/09/02 14:35:30;;;;;;;;;;;;;;;;;;10510204;28;19924;-63
2022/09/02 14:40:32;;;;;;;;;;;;;;;;;;10511978;28;19931;-63
2022/09/02 14:45:34;;;;;;;;;;;;;;;;;;10511321;28;19925;-63
2022/09/02 14:50:37;;;;;;;;;;;;;;;;;;10511750;28;19924;-63
2022/09/02 14:55:39;;;;;;;;;;;;;;;;;;10507305;28;19924;-63
2022/09/02 15:00:41;;;;;;;;;;;;;;;;;;10511683;28;19925;-63
2022/09/02 15:05:43;;;;;;;;;;;;;;;;;;10511459;28;19935;-63
2022/09/02 15:10:45;;;;;;;;;;;;;;;;;;10511410;28;19944;-63
2022/09/02 15:15:49;;;;;;;;;;;;;;;;;;10511115;28;20290;-63
2022/09/02 15:20:51;;;;;;;;;;;;;;;;;;10511293;28;19924;-63
2022/09/02 15:25:53;;;;;;;;;;;;;;;;;;10506474;28;20394;-63
2022/09/02 15:30:55;;;;;;;;;;;;;;;;;;10503614;28;19928;-63
2022/09/02 15:35:57;;;;;;;;;;;;;;;;;;10504431;28;19924;-63
2022/09/02 15:41:00;;;;;;;;;;;;;;;;;;10503085;28;20371;-63
2022/09/02 15:46:02;;;;;;;;;;;;;;;;;;10499731;28;20371;-63
2022/09/02 15:51:04;;;;;;;;;;;;;;;;;;10499276;28;19978;-63
2022/09/02 15:56:06;;;;;;;;;;;;;;;;;;10502435;28;19924;-62
2022/09/02 16:01:08;;;;;;;;;;;;;;;;;;10503246;28;19931;-63
2022/09/02 16:06:10;;;;;;;;;;;;;;;;;;10501942;28;19924;-63
2022/09/02 16:11:13;;;;;;;;;;;;;;;;;;10484717;28;19964;-63
2022/09/02 16:16:15;;;;;;;;;;;;;;;;;;10502612;28;19928;-63
2022/09/02 16:21:17;;;;;;;;;;;;;;;;;;10502410;28;19928;-63
2022/09/02 16:26:19;;;;;;;;;;;;;;;;;;10501622;28;19946;-63
2022/09/02 16:31:22;;;;;;;;;;;;;;;;;;10501286;28;19931;-63
2022/09/02 16:36:25;;;;;;;;;;;;;;;;;;10501274;28;19928;-63
2022/09/02 16:41:31;;;;;;;;;;;;;;;;;;10501606;28;19925;-63
2022/09/02 16:46:33;;;;;;;;;;;;;;;;;;10501225;28;19924;-63
2022/09/02 16:51:35;;;;;;;;;;;;;;;;;;10501171;28;19928;-63
2022/09/02 16:56:37;;;;;;;;;;;;;;;;;;10501092;28;19924;-63
2022/09/02 17:01:39;;;;;;;;;;;;;;;;;;10500155;28;19924;-63
2022/09/02 17:06:42;;;;;;;;;;;;;;;;;;10501054;28;19925;-63
2022/09/02 17:11:44;;;;;;;;;;;;;;;;;;10500394;28;19924;-63
2022/09/02 17:16:46;;;;;;;;;;;;;;;;;;10500250;28;19924;-63
2022/09/02 17:21:49;;;;;;;;;;;;;;;;;;10499476;28;20015;-63
2022/09/02 17:26:53;;;;;;;;;;;;;;;;;;10499865;28;19925;-63
2022/09/02 17:31:55;;;;;;;;;;;;;;;;;;10499668;28;19939;-63
2022/09/02 17:36:57;;;;;;;;;;;;;;;;;;10499607;28;19930;-63
2022/09/02 17:42:02;;;;;;;;;;;;;;;;;;10498769;28;20282;-63
2022/09/02 17:47:04;;;;;;;;;;;;;;;;;;10498255;28;20364;-63
2022/09/02 17:52:06;;;;;;;;;;;;;;;;;;10499016;28;19968;-63
2022/09/02 17:57:09;;;;;;;;;;;;;;;;;;10499094;28;19968;-62
2022/09/02 18:02:11;;;;;;;;;;;;;;;;;;10487641;22;19924;-60
2022/09/02 18:07:14;;;;;;;;;;;;;;;;;;10457462;28;19925;-60
2022/09/02 18:12:16;;;;;;;;;;;;;;;;;;10456599;28;19936;-60
2022/09/02 18:17:18;;;;;;;;;;;;;;;;;;10456628;28;19932;-60
2022/09/02 18:22:20;;;;;;;;;;;;;;;;;;10457424;28;19925;-60
2022/09/02 18:27:22;;;;;;;;;;;;;;;;;;10457085;28;19932;-60
2022/09/02 18:32:26;;;;;;;;;;;;;;;;;;10452658;28;19924;-60
2022/09/02 18:37:29;;;;;;;;;;;;;;;;;;10456229;28;20007;-60
2022/09/02 18:42:31;;;;;;;;;;;;;;;;;;10455661;28;19925;-60
2022/09/02 18:47:33;;;;;;;;;;;;;;;;;;10455345;28;19948;-60
2022/09/02 18:52:35;;;;;;;;;;;;;;;;;;10455408;28;19936;-60
2022/09/02 18:57:37;;;;;;;;;;;;;;;;;;10455070;28;20306;-60
2022/09/02 19:02:40;;;;;;;;;;;;;;;;;;10463608;28;19924;-60
2022/09/02 19:13:04;;;;;;;;;;;;;;;;;;10461072;28;19957;-60
2022/09/02 19:18:06;;;;;;;;;;;;;;;;;;10461556;28;19936;-60
2022/09/02 19:23:08;;;;;;;;;;;;;;;;;;10463440;28;19929;-59
2022/09/02 19:28:11;;;;;;;;;;;;;;;;;;10458840;28;19925;-59
2022/09/02 19:33:13;;;;;;;;;;;;;;;;;;10461537;28;19929;-59
2022/09/02 19:38:16;;;;;;;;;;;;;;;;;;10462851;28;19936;-59
2022/09/02 19:43:19;;;;;;;;;;;;;;;;;;10461890;28;19971;-59
2022/09/02 19:48:21;;;;;;;;;;;;;;;;;;10460819;28;19936;-59
2022/09/02 19:53:28;;;;;;;;;;;;;;;;;;10459954;28;20295;-59
2022/09/02 19:58:31;;;;;;;;;;;;;;;;;;10462233;28;19925;-59
2022/09/02 20:03:33;;;;;;;;;;;;;;;;;;10461422;28;20363;-59
2022/09/02 20:08:35;;;;;;;;;;;;;;;;;;10460285;28;19929;-59
2022/09/02 20:13:37;;;;;;;;;;;;;;;;;;10458977;28;19932;-59
2022/09/02 20:18:47;;;;;;;;;;;;;;;;;;10461046;28;19964;-59
2022/09/02 20:23:49;;;;;;;;;;;;;;;;;;10460533;28;20343;-59
2022/09/02 20:28:51;;;;;;;;;;;;;;;;;;10459916;28;19929;-59
2022/09/02 20:33:53;;;;;;;;;;;;;;;;;;10459800;28;19932;-59
2022/09/02 20:38:55;;;;;;;;;;;;;;;;;;10458782;28;19928;-59
2022/09/02 20:43:57;;;;;;;;;;;;;;;;;;10458739;28;20304;-59
2022/09/02 20:49:02;;;;;;;;;;;;;;;;;;10458447;28;20376;-59
2022/09/02 20:54:04;;;;;;;;;;;;;;;;;;10459103;28;19925;-59
2022/09/02 20:59:09;;;;;;;;;;;;;;;;;;10459822;28;19925;-60
2022/09/02 21:04:11;;;;;;;;;;;;;;;;;;10458745;28;19925;-59
2022/09/02 21:09:13;;;;;;;;;;;;;;;;;;10458687;28;19924;-59
2022/09/02 21:14:15;;;;;;;;;;;;;;;;;;10457553;28;19935;-59
2022/09/02 21:19:17;;;;;;;;;;;;;;;;;;10458933;28;19932;-59
2022/09/02 21:24:19;;;;;;;;;;;;;;;;;;10457991;28;19925;-59
2022/09/02 21:29:21;;;;;;;;;;;;;;;;;;10458608;28;19925;-59
2022/09/02 21:34:24;;;;;;;;;;;;;;;;;;10439803;28;19924;-59
2022/09/02 21:39:26;;;;;;;;;;;;;;;;;;10457661;28;19925;-59
2022/09/02 21:44:32;;;;;;;;;;;;;;;;;;10452510;28;19925;-59
2022/09/02 21:49:36;;;;;;;;;;;;;;;;;;10455756;28;19925;-59
2022/09/02 21:54:39;;;;;;;;;;;;;;;;;;10456230;28;19932;-59
2022/09/02 21:59:42;;;;;;;;;;;;;;;;;;10455654;28;20414;-59
2022/09/02 22:04:44;;;;;;;;;;;;;;;;;;10457559;28;19924;-59
2022/09/02 22:09:49;;;;;;;;;;;;;;;;;;10457418;28;19936;-59
2022/09/02 22:14:52;;;;;;;;;;;;;;;;;;10456534;28;19931;-59
2022/09/02 22:19:56;;;;;;;;;;;;;;;;;;10455606;28;19924;-59
2022/09/02 22:24:58;;;;;;;;;;;;;;;;;;10457132;28;19925;-59
2022/09/02 22:30:00;;;;;;;;;;;;;;;;;;10455587;28;19931;-59
2022/09/02 22:35:03;;;;;;;;;;;;;;;;;;10458309;28;20656;-59
2022/09/02 22:40:06;;;;;;;;;;;;;;;;;;10464576;28;19929;-59
2022/09/02 22:55:49;;;;;;;;;;;;;;;;;;10462942;28;20283;-59
2022/09/02 23:00:51;;;;;;;;;;;;;;;;;;10463749;28;19932;-59
2022/09/02 23:05:53;;;;;;;;;;;;;;;;;;10463267;28;19932;-59
2022/09/02 23:10:56;;;;;;;;;;;;;;;;;;10463919;28;19935;-59
2022/09/02 23:15:58;;;;;;;;;;;;;;;;;;10463010;28;19925;-59
2022/09/02 23:21:00;;;;;;;;;;;;;;;;;;10463587;28;19925;-59
2022/09/02 23:26:08;;;;;;;;;;;;;;;;;;10451370;28;20368;-59
2022/09/02 23:31:10;;;;;;;;;;;;;;;;;;10421433;28;19925;-59
2022/09/02 23:36:12;;;;;;;;;;;;;;;;;;10462872;28;19967;-59
2022/09/02 23:41:16;;;;;;;;;;;;;;;;;;10462425;28;19957;-59
2022/09/02 23:46:18;;;;;;;;;;;;;;;;;;10437128;28;19928;-59
2022/09/02 23:51:21;;;;;;;;;;;;;;;;;;10460721;28;20030;-58
2022/09/02 23:56:23;;;;;;;;;;;;;;;;;;10462011;28;20371;-59
